Barnhill, Illinois
Current Conditions -  °F | °C
As of 4:35 AM on Wednesday 22 Oct 2014 (Local Time) from KFWC Reporting Station
Clear Clear  
Wind Chill: 38°   Ceiling: Unl
Heat Index: 41°   Visibility: 10mi
Dew Point: 40°   Wind: 5mph
Humidity: 95%   Direction: 10°N
Pressure: 30.23"   Gusts: NA
Location:  38.28°N, 88.36°W
Report Text: KFWC 220935Z AUTO 01004KT 10SM CLR 05/04 A3023 RMK AO1 T00500043
Loading
Personal Weather Stations






























Interactive Weather Map
Tropical Storm Tracking
New forecast layout! Learn more

10-Day Weather Forecast

Advertisements
Track Severe Weather on mobile